TimeCDT,TemperatureF,Dew PointF,Humidity,Sea Level PressureIn,VisibilityMPH,Wind Direction,Wind SpeedMPH,Gust SpeedMPH,PrecipitationIn,Events,Conditions,WindDirDegrees,DateUTC
12:52 AM,34.0,26.1,73,30.24,10.0,NNW,4.6,-,N/A,,Clear,340,2013-04-02 05:52:00
1:52 AM,35.1,25.0,67,30.25,10.0,North,3.5,-,N/A,,Clear,350,2013-04-02 06:52:00
2:52 AM,33.1,24.1,70,30.27,10.0,Calm,Calm,-,N/A,,Clear,0,2013-04-02 07:52:00
3:52 AM,32.0,25.0,75,30.27,10.0,North,4.6,-,N/A,,Clear,350,2013-04-02 08:52:00
4:52 AM,32.0,24.1,73,30.27,10.0,NNW,3.5,-,N/A,,Clear,340,2013-04-02 09:52:00
5:52 AM,30.0,21.9,72,30.30,10.0,NNW,5.8,-,N/A,,Clear,340,2013-04-02 10:52:00
6:52 AM,28.9,21.9,75,30.32,10.0,NNW,4.6,-,N/A,,Clear,340,2013-04-02 11:52:00
8:52 AM,37.0,21.0,52,30.35,10.0,NNE,6.9,-,N/A,,Clear,30,2013-04-02 13:52:00
9:52 AM,39.0,19.0,45,30.35,10.0,ENE,6.9,-,N/A,,Scattered Clouds,60,2013-04-02 14:52:00
10:52 AM,39.9,18.0,41,30.35,10.0,Calm,Calm,-,N/A,,Mostly Cloudy,0,2013-04-02 15:52:00
12:52 PM,44.1,15.1,31,30.33,10.0,Variable,4.6,-,N/A,,Scattered Clouds,0,2013-04-02 17:52:00
1:52 PM,46.9,19.0,33,30.31,10.0,NW,5.8,-,N/A,,Scattered Clouds,320,2013-04-02 18:52:00
2:52 PM,46.9,12.9,25,30.29,10.0,Calm,Calm,-,N/A,,Mostly Cloudy,0,2013-04-02 19:52:00
3:52 PM,48.0,16.0,28,30.28,10.0,NNE,9.2,-,N/A,,Mostly Cloudy,30,2013-04-02 20:52:00
4:52 PM,46.9,15.1,28,30.27,10.0,NW,4.6,-,N/A,,Mostly Cloudy,320,2013-04-02 21:52:00
5:52 PM,46.9,17.1,30,30.27,10.0,North,5.8,-,N/A,,Clear,360,2013-04-02 22:52:00
6:52 PM,45.0,21.0,39,30.29,10.0,NNE,6.9,-,N/A,,Clear,30,2013-04-02 23:52:00
7:52 PM,43.0,17.1,35,30.29,10.0,North,6.9,-,N/A,,Clear,10,2013-04-03 00:52:00
8:52 PM,41.0,19.9,43,30.30,10.0,NNE,3.5,-,N/A,,Clear,20,2013-04-03 01:52:00
9:52 PM,39.0,21.0,49,30.32,10.0,Calm,Calm,-,N/A,,Clear,0,2013-04-03 02:52:00
10:52 PM,37.0,23.0,57,30.31,10.0,Calm,Calm,-,N/A,,Clear,0,2013-04-03 03:52:00
11:52 PM,35.1,27.0,72,30.30,10.0,Calm,Calm,-,N/A,,Clear,0,2013-04-03 04:52:00